createdAt,value
2018-05-12T00:00:47.879Z,15.72
2018-05-12T00:01:47.836Z,15.72
2018-05-12T00:02:47.797Z,15.70
2018-05-12T00:03:47.756Z,15.67
2018-05-12T00:04:47.713Z,15.67
2018-05-12T00:05:47.696Z,15.67
2018-05-12T00:06:47.629Z,15.60
2018-05-12T00:07:47.589Z,15.62
2018-05-12T00:08:47.545Z,15.57
2018-05-12T00:09:47.507Z,15.62
2018-05-12T00:10:47.463Z,15.60
2018-05-12T00:11:47.424Z,15.57
2018-05-12T00:12:47.383Z,15.54
2018-05-12T00:13:47.336Z,15.63
2018-05-12T00:14:47.294Z,15.51
2018-05-12T00:15:47.254Z,15.48
2018-05-12T00:16:47.213Z,15.54
2018-05-12T00:17:47.171Z,15.41
2018-05-12T00:18:47.128Z,15.51
2018-05-12T00:19:47.097Z,15.45
2018-05-12T00:20:47.045Z,15.33
2018-05-12T00:21:47.006Z,15.32
2018-05-12T00:22:46.964Z,15.27
2018-05-12T00:23:46.932Z,15.27
2018-05-12T00:24:46.880Z,15.23
2018-05-12T00:25:46.839Z,15.27
2018-05-12T00:26:46.794Z,15.25
2018-05-12T00:27:46.752Z,15.17
2018-05-12T00:28:46.711Z,15.18
2018-05-12T00:29:46.670Z,15.19
2018-05-12T00:30:46.636Z,15.22
2018-05-12T00:31:46.584Z,15.19
2018-05-12T00:32:46.544Z,15.18
2018-05-12T00:33:46.502Z,15.25
2018-05-12T00:34:46.462Z,15.23
2018-05-12T00:35:46.420Z,15.22
2018-05-12T00:36:46.379Z,15.17
2018-05-12T00:37:46.334Z,15.18
2018-05-12T00:38:46.291Z,15.19
2018-05-12T00:39:46.251Z,15.18
2018-05-12T00:40:46.209Z,15.11
2018-05-12T00:41:46.167Z,15.11
2018-05-12T00:42:46.129Z,15.18
2018-05-12T00:43:46.083Z,15.10
2018-05-12T00:44:46.044Z,15.19
2018-05-12T00:45:45.999Z,15.14
2018-05-12T00:46:45.962Z,15.12
2018-05-12T00:47:45.914Z,15.12
2018-05-12T00:48:45.873Z,15.17
2018-05-12T00:49:45.834Z,15.15
2018-05-12T00:50:45.789Z,15.23
2018-05-12T00:51:45.748Z,15.19
2018-05-12T00:52:45.707Z,15.17
2018-05-12T00:53:45.664Z,15.17
2018-05-12T00:54:45.624Z,15.18
2018-05-12T00:55:45.581Z,15.22
2018-05-12T00:56:45.538Z,15.14
2018-05-12T00:57:45.497Z,15.15
2018-05-12T00:58:45.454Z,15.19
2018-05-12T00:59:45.413Z,15.17
2018-05-12T01:00:45.371Z,15.25
2018-05-12T01:01:45.327Z,15.18
2018-05-12T01:02:45.285Z,15.18
2018-05-12T01:03:45.244Z,15.25
2018-05-12T01:04:45.211Z,15.23
2018-05-12T01:05:45.159Z,15.15
2018-05-12T01:06:45.121Z,15.23
2018-05-12T01:07:45.080Z,15.17
2018-05-12T01:08:45.033Z,15.26
2018-05-12T01:09:44.990Z,15.15
2018-05-12T01:10:44.951Z,15.25
2018-05-12T01:11:44.908Z,15.22
2018-05-12T01:12:44.866Z,15.22
2018-05-12T01:13:44.826Z,15.25
2018-05-12T01:14:44.785Z,15.25
2018-05-12T01:15:44.742Z,15.23
2018-05-12T01:16:44.700Z,15.23
2018-05-12T01:17:44.658Z,15.12
2018-05-12T01:18:44.616Z,15.12
2018-05-12T01:19:44.574Z,15.17
2018-05-12T01:20:44.531Z,15.10
2018-05-12T01:21:44.495Z,15.12
2018-05-12T01:22:44.448Z,15.07
2018-05-12T01:23:44.406Z,15.14
2018-05-12T01:24:44.364Z,15.05
2018-05-12T01:25:44.319Z,15.10
2018-05-12T01:26:44.279Z,15.05
2018-05-12T01:27:44.237Z,15.04
2018-05-12T01:28:44.197Z,15.07
2018-05-12T01:29:44.154Z,15.04
2018-05-12T01:30:44.115Z,15.07
2018-05-12T01:31:44.068Z,15.04
2018-05-12T01:32:44.031Z,14.97
2018-05-12T01:33:43.986Z,15.05
2018-05-12T01:34:43.944Z,14.94
2018-05-12T01:35:43.904Z,14.93
2018-05-12T01:36:43.858Z,14.99
2018-05-12T01:37:43.817Z,14.90
2018-05-12T01:38:43.776Z,14.89
2018-05-12T01:39:43.733Z,14.85
2018-05-12T01:40:43.714Z,14.82
2018-05-12T01:41:43.659Z,14.78
2018-05-12T01:42:43.607Z,14.77
2018-05-12T01:43:43.569Z,14.71
2018-05-12T01:44:43.525Z,14.85
2018-05-12T01:45:43.487Z,14.77
2018-05-12T01:46:43.446Z,14.73
2018-05-12T01:47:43.396Z,14.63
2018-05-12T01:48:43.366Z,14.63
2018-05-12T01:49:43.318Z,14.63
2018-05-12T01:50:43.269Z,14.51
2018-05-12T01:51:43.229Z,14.52
2018-05-12T01:52:43.186Z,14.55
2018-05-12T01:53:43.142Z,14.37
2018-05-12T01:54:43.124Z,14.40
2018-05-12T01:55:43.059Z,14.43
2018-05-12T01:56:43.016Z,14.40
2018-05-12T01:57:42.975Z,14.37
2018-05-12T01:58:42.932Z,14.26
2018-05-12T01:59:42.889Z,14.28
2018-05-12T02:00:42.847Z,14.30
2018-05-12T02:01:42.805Z,14.25
2018-05-12T02:02:42.764Z,14.20
2018-05-12T02:03:42.720Z,14.25
2018-05-12T02:04:42.683Z,14.08
2018-05-12T02:05:42.634Z,14.11
2018-05-12T02:06:42.597Z,14.08
2018-05-12T02:07:42.551Z,14.04
2018-05-12T02:08:42.512Z,14.03
2018-05-12T02:09:42.465Z,13.94
2018-05-12T02:10:42.424Z,13.87
2018-05-12T02:11:42.381Z,13.89
2018-05-12T02:12:42.340Z,13.82
2018-05-12T02:13:42.296Z,13.80
2018-05-12T02:14:42.255Z,13.78
2018-05-12T02:15:42.214Z,13.68
2018-05-12T02:16:42.170Z,13.71
2018-05-12T02:17:42.127Z,13.68
2018-05-12T02:18:42.085Z,13.64
2018-05-12T02:20:42.001Z,13.57
2018-05-12T02:21:41.958Z,13.57
2018-05-12T02:22:41.913Z,13.42
2018-05-12T02:23:41.871Z,13.42
2018-05-12T02:24:41.830Z,13.37
2018-05-12T02:25:41.787Z,13.31
2018-05-12T02:26:41.742Z,13.37
2018-05-12T02:27:41.700Z,13.42
2018-05-12T02:28:41.660Z,13.37
2018-05-12T02:29:41.615Z,13.30
2018-05-12T02:30:41.574Z,13.33
2018-05-12T02:31:41.532Z,13.33
2018-05-12T02:32:41.488Z,13.27
2018-05-12T02:33:41.448Z,13.27
2018-05-12T02:34:41.402Z,13.26
2018-05-12T02:35:41.361Z,13.16
2018-05-12T02:36:41.319Z,13.33
2018-05-12T02:37:41.278Z,13.16
2018-05-12T02:38:41.231Z,13.20
2018-05-12T02:39:41.188Z,13.13
2018-05-12T02:40:41.146Z,13.09
2018-05-12T02:41:41.103Z,13.02
2018-05-12T02:42:41.059Z,12.95
2018-05-12T02:43:41.018Z,13.08
2018-05-12T02:44:40.973Z,13.01
2018-05-12T02:45:40.930Z,13.02
2018-05-12T02:46:40.887Z,12.91
2018-05-12T02:47:40.845Z,12.94
2018-05-12T02:48:40.802Z,12.90
2018-05-12T02:49:40.756Z,12.84
2018-05-12T02:50:40.716Z,12.93
2018-05-12T02:51:40.673Z,12.80
2018-05-12T02:52:40.632Z,12.81
2018-05-12T02:53:40.587Z,12.81
2018-05-12T02:54:40.542Z,12.84
2018-05-12T02:55:40.506Z,12.72
2018-05-12T02:56:40.461Z,12.69
2018-05-12T02:57:40.416Z,12.66
2018-05-12T02:58:40.371Z,12.57
2018-05-12T02:59:40.329Z,12.58
2018-05-12T03:00:40.285Z,12.57
2018-05-12T03:01:40.245Z,12.58
2018-05-12T03:02:40.198Z,12.63
2018-05-12T03:03:40.155Z,12.57
2018-05-12T03:04:40.113Z,12.61
2018-05-12T03:05:40.068Z,12.57
2018-05-12T03:06:40.039Z,12.51
2018-05-12T03:07:39.986Z,12.50
2018-05-12T03:08:39.944Z,12.50
2018-05-12T03:09:39.898Z,12.51
2018-05-12T03:10:39.857Z,12.50
2018-05-12T03:11:39.814Z,12.50
2018-05-12T03:12:39.767Z,12.48
2018-05-12T03:13:39.726Z,12.47
2018-05-12T03:14:39.689Z,12.43
2018-05-12T03:15:39.641Z,12.39
2018-05-12T03:16:39.609Z,12.44
2018-05-12T03:17:39.551Z,12.35
2018-05-12T03:18:39.508Z,12.40
2018-05-12T03:19:39.469Z,12.39
2018-05-12T03:20:39.420Z,12.35
2018-05-12T03:21:39.382Z,12.32
2018-05-12T03:22:39.346Z,12.30
2018-05-12T03:23:39.293Z,12.32
2018-05-12T03:24:39.264Z,12.25
2018-05-12T03:25:39.206Z,12.21
2018-05-12T03:26:39.163Z,12.26
2018-05-12T03:27:39.122Z,12.25
2018-05-12T03:28:39.075Z,12.23
2018-05-12T03:29:39.033Z,12.25
2018-05-12T03:30:38.988Z,12.32
2018-05-12T03:31:38.953Z,12.29
2018-05-12T03:32:38.902Z,12.18
2018-05-12T03:33:38.859Z,12.18
2018-05-12T03:34:38.815Z,12.17
2018-05-12T03:35:38.780Z,12.18
2018-05-12T03:36:38.731Z,12.20
2018-05-12T03:37:38.687Z,12.14
2018-05-12T03:38:38.641Z,12.15
2018-05-12T03:39:38.599Z,12.20
2018-05-12T03:40:38.558Z,12.12
2018-05-12T03:41:38.513Z,12.14
2018-05-12T03:42:38.477Z,12.11
2018-05-12T03:43:38.424Z,12.03
2018-05-12T03:44:38.383Z,12.05
2018-05-12T03:45:38.337Z,12.03
2018-05-12T03:46:38.294Z,12.02
2018-05-12T03:47:38.249Z,12.03
2018-05-12T03:48:38.213Z,11.95
2018-05-12T03:49:38.163Z,12.08
2018-05-12T03:50:38.123Z,11.97
2018-05-12T03:51:38.076Z,12.00
2018-05-12T03:52:38.084Z,11.99
2018-05-12T03:53:37.998Z,12.03
2018-05-12T03:54:37.946Z,12.00
2018-05-12T03:55:37.904Z,11.95
2018-05-12T03:56:37.858Z,11.96
2018-05-12T03:57:37.815Z,11.99
2018-05-12T03:58:37.774Z,12.00
2018-05-12T03:59:37.728Z,11.95
2018-05-12T04:00:37.686Z,11.99
2018-05-12T04:01:37.644Z,12.02
2018-05-12T04:02:37.605Z,12.03
2018-05-12T04:03:37.554Z,11.97
2018-05-12T04:04:37.511Z,11.96
2018-05-12T04:05:37.469Z,12.03
2018-05-12T04:06:37.425Z,12.05
2018-05-12T04:07:37.379Z,12.08
2018-05-12T04:08:37.427Z,11.96
2018-05-12T04:09:37.292Z,12.05
2018-05-12T04:10:37.250Z,12.02
2018-05-12T04:11:37.204Z,12.03
2018-05-12T04:12:37.179Z,12.00
2018-05-12T04:13:37.118Z,12.00
2018-05-12T04:14:37.074Z,11.97
2018-05-12T04:15:37.037Z,11.96
2018-05-12T04:16:36.989Z,12.08
2018-05-12T04:17:36.942Z,12.08
2018-05-12T04:18:36.907Z,12.00
2018-05-12T04:19:36.857Z,12.05
2018-05-12T04:20:36.813Z,11.99
2018-05-12T04:21:36.772Z,12.07
2018-05-12T04:22:36.727Z,12.00
2018-05-12T04:23:36.686Z,12.05
2018-05-12T04:24:36.645Z,12.05
2018-05-12T04:25:36.594Z,12.10
2018-05-12T04:26:36.551Z,12.07
2018-05-12T04:27:36.512Z,12.15
2018-05-12T04:28:36.467Z,12.18
2018-05-12T04:29:36.421Z,12.10
2018-05-12T04:30:36.377Z,12.12
2018-05-12T04:31:36.334Z,12.15
2018-05-12T04:32:36.296Z,12.11
2018-05-12T04:33:36.250Z,12.11
2018-05-12T04:34:36.202Z,12.17
2018-05-12T04:35:36.158Z,12.15
2018-05-12T04:36:36.119Z,12.23
2018-05-12T04:37:36.073Z,12.26
2018-05-12T04:38:36.028Z,12.28
2018-05-12T04:39:35.989Z,12.28
2018-05-12T04:40:35.944Z,12.29
2018-05-12T04:41:35.897Z,12.33
2018-05-12T04:42:35.855Z,12.29
2018-05-12T04:43:35.813Z,12.36
2018-05-12T04:44:35.775Z,12.37
2018-05-12T04:45:35.726Z,12.40
2018-05-12T04:46:35.685Z,12.39
2018-05-12T04:47:35.642Z,12.45
2018-05-12T04:48:35.598Z,12.51
2018-05-12T04:49:35.553Z,12.50
2018-05-12T04:50:35.507Z,12.55
2018-05-12T04:51:35.464Z,12.48
2018-05-12T04:52:35.421Z,12.58
2018-05-12T04:53:35.377Z,12.53
2018-05-12T04:54:35.338Z,12.62
2018-05-12T04:55:35.291Z,12.63
2018-05-12T04:56:35.250Z,12.58
2018-05-12T04:57:35.207Z,12.69
2018-05-12T04:58:35.161Z,12.72
2018-05-12T04:59:35.118Z,12.81
2018-05-12T05:00:35.075Z,12.73
2018-05-12T05:01:35.035Z,12.76
2018-05-12T05:02:34.987Z,12.86
2018-05-12T05:03:34.944Z,12.76
2018-05-12T05:04:34.901Z,12.87
2018-05-12T05:05:34.858Z,12.76
2018-05-12T05:06:34.815Z,12.86
2018-05-12T05:07:34.774Z,12.90
2018-05-12T05:08:34.734Z,12.93
2018-05-12T05:09:34.685Z,13.02
2018-05-12T05:10:34.643Z,13.03
2018-05-12T05:11:34.606Z,12.99
2018-05-12T05:12:34.556Z,13.08
2018-05-12T05:13:34.514Z,13.11
2018-05-12T05:14:34.470Z,13.17
2018-05-12T05:15:34.429Z,13.17
2018-05-12T05:16:34.385Z,13.23
2018-05-12T05:17:34.341Z,13.19
2018-05-12T05:18:34.299Z,13.31
2018-05-12T05:19:34.261Z,13.31
2018-05-12T05:20:34.213Z,13.39
2018-05-12T05:21:34.169Z,13.39
2018-05-12T05:22:34.130Z,13.37
2018-05-12T05:23:34.084Z,13.39
2018-05-12T05:24:34.042Z,13.49
2018-05-12T05:25:33.998Z,13.43
2018-05-12T05:26:33.957Z,13.49
2018-05-12T05:27:33.914Z,13.61
2018-05-12T05:28:33.871Z,13.52
2018-05-12T05:29:33.826Z,13.65
2018-05-12T05:30:33.788Z,13.65
2018-05-12T05:31:33.744Z,13.68
2018-05-12T05:32:33.698Z,13.76
2018-05-12T05:33:33.658Z,13.71
2018-05-12T05:34:33.613Z,13.78
2018-05-12T05:35:33.571Z,13.85
2018-05-12T05:36:33.526Z,13.94
2018-05-12T05:37:33.483Z,13.91
2018-05-12T05:38:33.442Z,13.98
2018-05-12T05:39:33.463Z,14.07
2018-05-12T05:40:33.359Z,14.08
2018-05-12T05:41:33.400Z,14.23
2018-05-12T05:42:33.276Z,14.30
2018-05-12T05:43:33.230Z,14.33
2018-05-12T05:44:33.190Z,14.38
2018-05-12T05:45:33.142Z,14.45
2018-05-12T05:46:33.105Z,14.49
2018-05-12T05:47:33.059Z,14.53
2018-05-12T05:48:33.019Z,14.62
2018-05-12T05:49:32.973Z,14.67
2018-05-12T05:50:32.936Z,14.78
2018-05-12T05:51:32.890Z,14.68
2018-05-12T05:52:32.851Z,14.86
2018-05-12T05:53:32.806Z,14.89
2018-05-12T05:54:32.761Z,14.93
2018-05-12T05:55:32.720Z,14.99
2018-05-12T05:56:32.677Z,14.99
2018-05-12T05:57:32.634Z,15.05
2018-05-12T05:58:32.663Z,15.11
2018-05-12T05:59:32.557Z,15.23
2018-05-12T06:00:32.511Z,15.19
2018-05-12T06:01:32.467Z,15.30
2018-05-12T06:02:32.425Z,15.39
2018-05-12T06:03:32.384Z,15.41
2018-05-12T06:04:32.342Z,15.33
2018-05-12T06:05:32.298Z,15.52
2018-05-12T06:06:32.259Z,15.55
2018-05-12T06:07:32.215Z,15.54
2018-05-12T06:08:32.175Z,15.54
2018-05-12T06:09:32.136Z,15.62
2018-05-12T06:10:32.090Z,15.59
2018-05-12T06:11:32.049Z,15.67
2018-05-12T06:12:32.012Z,15.76
2018-05-12T06:13:31.964Z,15.69
2018-05-12T06:14:31.922Z,15.76
2018-05-12T06:15:31.887Z,15.87
2018-05-12T06:16:31.843Z,15.88
2018-05-12T06:17:31.797Z,15.90
2018-05-12T06:18:31.756Z,15.94
2018-05-12T06:19:31.716Z,15.99
2018-05-12T06:20:31.677Z,15.99
2018-05-12T06:21:31.630Z,16.06
2018-05-12T06:22:31.588Z,16.10
2018-05-12T06:23:31.547Z,16.10
2018-05-12T06:24:31.506Z,16.18
2018-05-12T06:25:31.466Z,16.18
2018-05-12T06:26:31.421Z,16.16
2018-05-12T06:27:31.380Z,16.32
2018-05-12T06:28:31.341Z,16.39
2018-05-12T06:29:31.296Z,16.37
2018-05-12T06:30:31.259Z,16.41
2018-05-12T06:31:31.215Z,16.50
2018-05-12T06:32:31.173Z,16.51
2018-05-12T06:33:31.177Z,16.55
2018-05-12T06:34:31.090Z,16.47
2018-05-12T06:35:31.049Z,16.61
2018-05-12T06:36:31.007Z,16.58
2018-05-12T06:37:30.970Z,16.68
2018-05-12T06:38:30.924Z,16.79
2018-05-12T06:39:30.884Z,16.69
2018-05-12T06:40:30.842Z,16.86
2018-05-12T06:41:30.800Z,16.95
2018-05-12T06:42:30.759Z,16.97
2018-05-12T06:43:30.717Z,17.01
2018-05-12T06:44:30.675Z,17.01
2018-05-12T06:45:30.636Z,17.07
2018-05-12T06:46:30.597Z,17.14
2018-05-12T06:47:30.555Z,17.22
2018-05-12T06:48:30.514Z,17.24
2018-05-12T06:49:30.470Z,17.37
2018-05-12T06:50:30.429Z,17.32
2018-05-12T06:51:30.388Z,17.39
2018-05-12T06:52:30.351Z,17.46
2018-05-12T06:53:30.309Z,17.57
2018-05-12T06:54:30.271Z,17.63
2018-05-12T06:55:30.227Z,17.73
2018-05-12T06:56:30.184Z,17.78
2018-05-12T06:57:30.146Z,17.90
2018-05-12T06:58:30.108Z,17.97
2018-05-12T06:59:30.061Z,17.94
2018-05-12T07:00:30.020Z,18.02
2018-05-12T07:01:30.010Z,18.09
2018-05-12T07:02:29.946Z,18.19
2018-05-12T07:03:29.904Z,18.26
2018-05-12T07:04:29.862Z,18.36
2018-05-12T07:05:29.815Z,18.46
2018-05-12T07:06:29.777Z,18.42
2018-05-12T07:07:29.736Z,18.46
2018-05-12T07:08:29.697Z,18.64
2018-05-12T07:09:29.656Z,18.67
2018-05-12T07:10:29.634Z,18.76
2018-05-12T07:11:29.576Z,18.82
2018-05-12T07:12:29.534Z,18.83
2018-05-12T07:13:29.495Z,18.92
2018-05-12T07:14:29.482Z,19.04
2018-05-12T07:15:29.415Z,19.11
2018-05-12T07:16:29.372Z,19.22
2018-05-12T07:18:29.293Z,19.32
2018-05-12T07:19:29.279Z,19.45
2018-05-12T07:20:29.215Z,19.49
2018-05-12T07:21:29.171Z,19.55
2018-05-12T07:22:29.140Z,19.56
2018-05-12T07:23:29.098Z,19.63
2018-05-12T07:24:29.056Z,19.66
2018-05-12T07:25:29.014Z,19.74
2018-05-12T07:26:28.973Z,19.82
2018-05-12T07:27:28.936Z,19.89
2018-05-12T07:28:28.894Z,19.97
2018-05-12T07:29:28.852Z,20.10
2018-05-12T07:30:28.812Z,20.07
2018-05-12T07:31:28.781Z,20.24
2018-05-12T07:32:28.732Z,20.29
2018-05-12T07:33:28.693Z,20.30
2018-05-12T07:34:28.661Z,20.44
2018-05-12T07:35:28.618Z,20.49
2018-05-12T07:36:28.578Z,20.60
2018-05-12T07:37:28.537Z,20.68
2018-05-12T07:38:28.496Z,20.73
2018-05-12T07:39:28.460Z,20.74
2018-05-12T07:40:28.420Z,21.01
2018-05-12T07:41:28.377Z,21.01
2018-05-12T07:42:28.341Z,21.15
2018-05-12T07:43:28.301Z,21.28
2018-05-12T07:44:28.261Z,21.28
2018-05-12T07:45:28.228Z,21.43
2018-05-12T07:46:28.181Z,21.63
2018-05-12T07:47:28.145Z,21.99
2018-05-12T07:48:28.107Z,22.28
2018-05-12T07:49:28.065Z,22.47
2018-05-12T07:50:28.026Z,22.76
2018-05-12T07:51:28.033Z,22.78
2018-05-12T07:52:27.951Z,22.99
2018-05-12T07:53:27.910Z,23.11
2018-05-12T07:54:27.870Z,23.37
2018-05-12T07:55:27.831Z,23.44
2018-05-12T07:56:27.794Z,23.62
2018-05-12T07:57:27.756Z,23.76
2018-05-12T07:58:27.718Z,23.81
2018-05-12T07:59:27.680Z,23.94
2018-05-12T08:00:27.670Z,24.03
2018-05-12T08:01:27.603Z,23.95
2018-05-12T08:02:27.562Z,24.21
2018-05-12T08:03:27.616Z,24.44
2018-05-12T08:04:27.491Z,24.40
2018-05-12T08:05:27.447Z,24.46
2018-05-12T08:06:27.409Z,24.65
2018-05-12T08:07:27.371Z,24.88
2018-05-12T08:08:27.337Z,25.03
2018-05-12T08:09:27.295Z,25.34
2018-05-12T08:10:27.260Z,25.49
2018-05-12T08:11:27.222Z,25.67
2018-05-12T08:12:27.182Z,25.70
2018-05-12T08:13:27.142Z,25.76
2018-05-12T08:14:27.106Z,26.07
2018-05-12T08:15:27.069Z,26.29
2018-05-12T08:16:27.031Z,26.48
2018-05-12T08:17:26.990Z,26.64
2018-05-12T08:18:26.955Z,26.81
2018-05-12T08:19:26.971Z,26.83
2018-05-12T08:20:26.878Z,26.74
2018-05-12T08:21:26.843Z,26.71
2018-05-12T08:22:26.805Z,26.70
2018-05-12T08:23:26.769Z,26.83
2018-05-12T08:24:26.731Z,26.97
2018-05-12T08:25:26.692Z,27.00
2018-05-12T08:26:26.655Z,27.13
2018-05-12T08:27:26.621Z,27.28
2018-05-12T08:28:26.583Z,27.41
2018-05-12T08:29:26.543Z,27.44
2018-05-12T08:30:26.506Z,27.26
2018-05-12T08:31:26.495Z,27.18
2018-05-12T08:32:26.431Z,27.41
2018-05-12T08:33:26.396Z,27.44
2018-05-12T08:34:26.357Z,27.68
2018-05-12T08:35:26.333Z,27.88
2018-05-12T08:36:26.285Z,27.88
2018-05-12T08:37:26.256Z,28.03
2018-05-12T08:38:26.221Z,28.10
2018-05-12T08:39:26.200Z,28.08
2018-05-12T08:40:26.173Z,28.00
2018-05-12T08:41:26.104Z,27.95
2018-05-12T08:42:26.068Z,27.97
2018-05-12T08:43:26.029Z,27.98
2018-05-12T08:44:25.992Z,28.19
2018-05-12T08:45:25.955Z,28.18
2018-05-12T08:46:25.920Z,28.19
2018-05-12T08:47:25.886Z,28.22
2018-05-12T08:48:25.935Z,28.15
2018-05-12T08:49:25.814Z,28.22
2018-05-12T08:50:25.773Z,28.35
2018-05-12T08:51:25.737Z,28.37
2018-05-12T08:52:25.706Z,28.43
2018-05-12T08:53:25.666Z,28.56
2018-05-12T08:54:25.629Z,28.53
2018-05-12T08:55:25.677Z,28.52
2018-05-12T08:56:25.557Z,28.67
2018-05-12T08:57:25.528Z,28.57
2018-05-12T08:58:25.486Z,28.60
2018-05-12T08:59:25.519Z,28.49
2018-05-12T09:00:25.415Z,28.56
2018-05-12T09:01:25.382Z,28.52
2018-05-12T09:02:25.344Z,28.55
2018-05-12T09:03:25.309Z,28.53
2018-05-12T09:04:25.272Z,28.64
2018-05-12T09:05:25.244Z,28.74
2018-05-12T09:06:25.200Z,28.72
2018-05-12T09:07:25.167Z,28.64
2018-05-12T09:08:25.134Z,28.67
2018-05-12T09:09:25.100Z,28.60
2018-05-12T09:10:25.066Z,28.53
2018-05-12T09:11:25.025Z,28.64
2018-05-12T09:12:24.993Z,28.64
2018-05-12T09:13:24.958Z,28.65
2018-05-12T09:14:24.920Z,28.59
2018-05-12T09:15:24.884Z,28.59
2018-05-12T09:16:24.855Z,28.43
2018-05-12T09:17:24.816Z,28.41
2018-05-12T09:18:24.781Z,28.43
2018-05-12T09:19:24.838Z,28.47
2018-05-12T09:20:24.714Z,28.43
2018-05-12T09:21:24.678Z,28.45
2018-05-12T09:22:24.640Z,28.47
2018-05-12T09:23:24.609Z,28.46
2018-05-12T09:24:24.570Z,28.53
2018-05-12T09:25:24.537Z,28.55
2018-05-12T09:26:24.503Z,28.50
2018-05-12T09:27:24.467Z,28.56
2018-05-12T09:28:24.432Z,28.53
2018-05-12T09:29:24.405Z,28.56
2018-05-12T09:30:24.361Z,28.65
2018-05-12T09:31:24.330Z,28.60
2018-05-12T09:32:24.295Z,28.59
2018-05-12T09:33:24.260Z,28.67
2018-05-12T09:34:24.225Z,28.62
2018-05-12T09:35:24.193Z,28.68
2018-05-12T09:36:24.155Z,28.55
2018-05-12T09:37:24.123Z,28.62
2018-05-12T09:38:24.087Z,28.65
2018-05-12T09:39:24.057Z,28.57
2018-05-12T09:42:24.036Z,28.28
2018-05-12T09:44:23.882Z,28.19
2018-05-12T09:45:23.846Z,28.30
2018-05-12T09:47:23.779Z,28.47
2018-05-12T09:48:23.743Z,28.56
2018-05-12T09:49:23.711Z,28.53
2018-05-12T09:50:23.671Z,28.65
2018-05-12T09:53:23.574Z,28.74
2018-05-12T09:54:23.536Z,28.83
2018-05-12T09:55:23.515Z,28.87
2018-05-12T09:56:23.474Z,28.90
2018-05-12T09:57:23.433Z,28.93
2018-05-12T09:58:23.399Z,28.97
2018-05-12T10:00:23.328Z,29.05
2018-05-12T10:01:23.293Z,29.06
2018-05-12T10:02:23.261Z,29.09
2018-05-12T10:03:23.312Z,29.09
2018-05-12T10:04:23.193Z,29.09
2018-05-12T10:05:23.158Z,29.18
2018-05-12T10:07:23.090Z,29.25
2018-05-12T10:08:23.055Z,29.24
2018-05-12T10:09:23.025Z,29.32
2018-05-12T10:10:22.991Z,29.42
2018-05-12T10:11:22.953Z,29.34
2018-05-12T10:12:22.919Z,29.42
2018-05-12T10:13:22.886Z,29.52
2018-05-12T10:14:22.852Z,29.49
2018-05-12T10:15:22.819Z,29.58
2018-05-12T10:16:22.787Z,29.52
2018-05-12T10:17:22.747Z,29.57
2018-05-12T10:18:22.713Z,29.57
2018-05-12T10:19:22.684Z,29.49
2018-05-12T10:20:22.650Z,29.49
2018-05-12T10:21:22.610Z,29.52
2018-05-12T10:22:22.577Z,29.55
2018-05-12T10:23:22.544Z,29.50
2018-05-12T10:24:22.515Z,29.43
2018-05-12T10:25:22.475Z,29.46
2018-05-12T10:26:22.442Z,29.49
2018-05-12T10:27:22.411Z,29.53
2018-05-12T10:28:22.373Z,29.52
2018-05-12T10:29:22.339Z,29.55
2018-05-12T10:30:22.304Z,29.58
2018-05-12T10:31:22.271Z,29.59
2018-05-12T10:32:22.239Z,29.76
2018-05-12T10:33:22.204Z,29.71
2018-05-12T10:34:22.172Z,29.76
2018-05-12T10:35:22.138Z,29.79
2018-05-12T10:36:22.103Z,29.79
2018-05-12T10:37:22.066Z,29.83
2018-05-12T10:38:22.039Z,29.81
2018-05-12T10:39:22.009Z,29.87
2018-05-12T10:40:21.967Z,29.83
2018-05-12T10:41:21.932Z,29.83
2018-05-12T10:42:21.903Z,29.86
2018-05-12T10:43:21.872Z,29.94
2018-05-12T10:44:21.833Z,29.99
2018-05-12T10:45:21.838Z,30.10
2018-05-12T10:46:21.765Z,30.16
2018-05-12T10:47:21.728Z,30.18
2018-05-12T10:48:21.699Z,30.26
2018-05-12T10:49:21.659Z,30.32
2018-05-12T10:50:21.626Z,30.40
2018-05-12T10:51:21.599Z,30.38
2018-05-12T10:52:21.560Z,30.46
2018-05-12T10:53:21.526Z,30.62
2018-05-12T10:54:21.491Z,30.61
2018-05-12T10:55:21.459Z,30.81
2018-05-12T10:56:21.425Z,30.93
2018-05-12T10:57:21.388Z,31.08
2018-05-12T10:58:21.372Z,31.17
2018-05-12T10:59:21.324Z,31.35
2018-05-12T11:00:21.293Z,31.44
2018-05-12T11:01:21.254Z,31.59
2018-05-12T11:02:21.229Z,31.85
2018-05-12T11:03:21.190Z,32.04
2018-05-12T11:04:21.157Z,32.23
2018-05-12T11:05:21.126Z,32.57
2018-05-12T11:06:21.089Z,32.75
2018-05-12T11:07:21.060Z,32.88
2018-05-12T11:08:21.039Z,32.90
2018-05-12T11:09:20.992Z,33.09
2018-05-12T11:10:20.958Z,33.32
2018-05-12T11:11:20.927Z,33.70
2018-05-12T11:12:20.893Z,34.02
2018-05-12T11:13:20.874Z,34.33
2018-05-12T11:14:20.827Z,34.40
2018-05-12T11:15:20.798Z,34.43
2018-05-12T11:16:20.774Z,34.58
2018-05-12T11:17:20.729Z,34.62
2018-05-12T11:18:20.698Z,34.71
2018-05-12T11:19:20.666Z,34.79
2018-05-12T11:20:20.690Z,34.88
2018-05-12T11:21:20.599Z,35.20
2018-05-12T11:22:20.566Z,35.42
2018-05-12T11:23:20.537Z,35.59
2018-05-12T11:24:20.503Z,35.68
2018-05-12T11:25:20.474Z,35.72
2018-05-12T11:26:20.436Z,35.78
2018-05-12T11:27:20.409Z,35.90
2018-05-12T11:28:20.375Z,36.16
2018-05-12T11:29:20.347Z,36.29
2018-05-12T11:30:20.311Z,36.44
2018-05-12T11:31:20.300Z,36.53
2018-05-12T11:32:20.245Z,36.39
2018-05-12T11:33:20.215Z,36.55
2018-05-12T11:34:20.186Z,36.66
2018-05-12T11:35:20.154Z,36.73
2018-05-12T11:36:20.127Z,36.80
2018-05-12T11:37:20.124Z,36.91
2018-05-12T11:38:20.058Z,37.11
2018-05-12T11:39:20.025Z,37.41
2018-05-12T11:40:19.999Z,37.60
2018-05-12T11:41:19.964Z,37.82
2018-05-12T11:42:19.933Z,37.97
2018-05-12T11:43:19.900Z,38.02
2018-05-12T11:44:19.940Z,38.20
2018-05-12T11:45:19.839Z,38.34
2018-05-12T11:46:19.808Z,38.34
2018-05-12T11:47:19.776Z,38.51
2018-05-12T11:48:19.753Z,38.41
2018-05-12T11:49:19.714Z,38.60
2018-05-12T11:50:19.683Z,38.63
2018-05-12T11:51:19.669Z,38.68
2018-05-12T11:52:19.630Z,38.66
2018-05-12T11:53:19.591Z,38.57
2018-05-12T11:54:19.561Z,38.36
2018-05-12T11:55:19.533Z,38.39
2018-05-12T11:56:19.503Z,38.39
2018-05-12T11:57:19.469Z,38.27
2018-05-12T11:58:19.497Z,38.34
2018-05-12T11:59:19.408Z,38.35
2018-05-12T12:00:19.377Z,38.34
2018-05-12T12:01:19.347Z,38.19
2018-05-12T12:02:19.317Z,38.25
2018-05-12T12:03:19.292Z,38.34
2018-05-12T12:04:19.259Z,38.51
2018-05-12T12:05:19.226Z,38.53
2018-05-12T12:06:19.194Z,38.35
2018-05-12T12:07:19.167Z,38.60
2018-05-12T12:09:19.151Z,38.65
2018-05-12T12:10:19.072Z,38.47
2018-05-12T12:11:19.046Z,38.23
2018-05-12T12:12:19.013Z,38.10
2018-05-12T12:13:18.982Z,38.07
2018-05-12T12:14:18.952Z,38.12
2018-05-12T12:15:18.925Z,37.97
2018-05-12T12:16:18.893Z,37.91
2018-05-12T12:17:18.863Z,37.90
2018-05-12T12:18:18.834Z,38.13
2018-05-12T12:19:18.813Z,38.35
2018-05-12T12:20:18.772Z,38.48
2018-05-12T12:21:18.761Z,38.65
2018-05-12T12:22:18.709Z,38.87
2018-05-12T12:23:18.681Z,39.03
2018-05-12T12:24:18.649Z,38.96
2018-05-12T12:25:18.620Z,39.14
2018-05-12T12:26:18.589Z,39.11
2018-05-12T12:27:18.562Z,39.03
2018-05-12T12:28:18.532Z,39.37
2018-05-12T12:29:18.499Z,39.64
2018-05-12T12:30:18.468Z,40.01
2018-05-12T12:31:18.442Z,40.31
2018-05-12T12:32:18.418Z,40.28
2018-05-12T12:33:18.404Z,40.20
2018-05-12T12:34:18.390Z,39.85
2018-05-12T12:35:18.324Z,39.76
2018-05-12T12:36:18.293Z,39.71
2018-05-12T12:37:18.267Z,39.78
2018-05-12T12:38:18.234Z,39.66
2018-05-12T12:39:18.205Z,39.37
2018-05-12T12:40:18.177Z,39.20
2018-05-12T12:41:18.147Z,39.03
2018-05-12T12:42:18.124Z,39.00
2018-05-12T12:43:18.089Z,38.87
2018-05-12T12:44:18.061Z,38.72
2018-05-12T12:45:18.029Z,38.96
2018-05-12T12:46:18.005Z,39.22
2018-05-12T12:47:17.976Z,39.03
2018-05-12T12:49:17.914Z,38.42
2018-05-12T12:50:17.885Z,38.09
2018-05-12T12:51:17.856Z,38.35
2018-05-12T12:52:17.826Z,38.46
2018-05-12T12:53:17.797Z,38.84
2018-05-12T12:54:17.770Z,39.00
2018-05-12T12:55:17.737Z,38.98
2018-05-12T12:56:17.719Z,38.77
2018-05-12T12:57:17.679Z,38.57
2018-05-12T12:58:17.694Z,38.51
2018-05-12T12:59:17.621Z,38.60
2018-05-12T13:00:17.596Z,38.65
2018-05-12T13:01:17.562Z,38.91
2018-05-12T13:02:17.535Z,39.17
2018-05-12T13:03:17.505Z,39.30
2018-05-12T13:04:17.477Z,39.48